sensor_id;sensor_type;location;lat;lon;timestamp;temperature;humidity
29803;DHT22;16702;50.898;4.662;2022-08-24T00:00:50;24.80;99.90
29803;DHT22;16702;50.898;4.662;2022-08-24T00:03:24;24.80;99.90
29803;DHT22;16702;50.898;4.662;2022-08-24T00:06:02;24.70;99.90
29803;DHT22;16702;50.898;4.662;2022-08-24T00:08:32;24.70;99.90
29803;DHT22;16702;50.898;4.662;2022-08-24T00:11:03;24.70;99.90
29803;DHT22;16702;50.898;4.662;2022-08-24T00:13:34;24.70;99.90
29803;DHT22;16702;50.898;4.662;2022-08-24T00:16:07;24.60;99.90
29803;DHT22;16702;50.898;4.662;2022-08-24T00:18:40;24.60;99.90
29803;DHT22;16702;50.898;4.662;2022-08-24T00:21:11;24.60;99.90
29803;DHT22;16702;50.898;4.662;2022-08-24T00:23:42;24.50;99.90
29803;DHT22;16702;50.898;4.662;2022-08-24T00:26:13;24.50;99.90
29803;DHT22;16702;50.898;4.662;2022-08-24T00:28:55;24.50;99.90
29803;DHT22;16702;50.898;4.662;2022-08-24T00:31:31;24.50;99.90
29803;DHT22;16702;50.898;4.662;2022-08-24T00:34:04;24.50;99.90
29803;DHT22;16702;50.898;4.662;2022-08-24T00:36:35;24.40;99.90
29803;DHT22;16702;50.898;4.662;2022-08-24T00:39:06;24.30;99.90
29803;DHT22;16702;50.898;4.662;2022-08-24T00:41:40;24.30;99.90
29803;DHT22;16702;50.898;4.662;2022-08-24T00:44:11;24.30;99.90
29803;DHT22;16702;50.898;4.662;2022-08-24T00:46:46;24.30;99.90
29803;DHT22;16702;50.898;4.662;2022-08-24T00:49:27;24.20;99.90
29803;DHT22;16702;50.898;4.662;2022-08-24T00:52:17;24.30;99.90
29803;DHT22;16702;50.898;4.662;2022-08-24T00:54:54;24.20;99.90
29803;DHT22;16702;50.898;4.662;2022-08-24T00:57:27;24.20;99.90
29803;DHT22;16702;50.898;4.662;2022-08-24T01:00:06;24.20;99.90
29803;DHT22;16702;50.898;4.662;2022-08-24T01:02:41;24.20;99.90
29803;DHT22;16702;50.898;4.662;2022-08-24T01:05:15;24.10;99.90
29803;DHT22;16702;50.898;4.662;2022-08-24T01:07:47;24.10;99.90
29803;DHT22;16702;50.898;4.662;2022-08-24T01:10:20;24.10;99.90
29803;DHT22;16702;50.898;4.662;2022-08-24T01:12:54;24.10;99.90
29803;DHT22;16702;50.898;4.662;2022-08-24T01:15:28;24.10;99.90
29803;DHT22;16702;50.898;4.662;2022-08-24T01:18:03;24.10;99.90
29803;DHT22;16702;50.898;4.662;2022-08-24T01:20:55;24.00;99.90
29803;DHT22;16702;50.898;4.662;2022-08-24T01:23:37;24.00;99.90
29803;DHT22;16702;50.898;4.662;2022-08-24T01:26:11;24.00;99.90
29803;DHT22;16702;50.898;4.662;2022-08-24T01:28:46;24.00;99.90
29803;DHT22;16702;50.898;4.662;2022-08-24T01:31:19;24.00;99.90
29803;DHT22;16702;50.898;4.662;2022-08-24T01:33:51;23.90;99.90
29803;DHT22;16702;50.898;4.662;2022-08-24T01:36:27;23.90;99.90
29803;DHT22;16702;50.898;4.662;2022-08-24T01:39:07;23.80;99.90
29803;DHT22;16702;50.898;4.662;2022-08-24T01:41:38;23.80;99.90
29803;DHT22;16702;50.898;4.662;2022-08-24T01:44:10;23.80;99.90
29803;DHT22;16702;50.898;4.662;2022-08-24T01:46:42;23.80;99.90
29803;DHT22;16702;50.898;4.662;2022-08-24T01:49:13;23.80;99.90
29803;DHT22;16702;50.898;4.662;2022-08-24T01:51:44;23.80;99.90
29803;DHT22;16702;50.898;4.662;2022-08-24T01:54:18;23.70;99.90
29803;DHT22;16702;50.898;4.662;2022-08-24T01:56:48;23.70;99.90
29803;DHT22;16702;50.898;4.662;2022-08-24T01:59:20;23.70;99.90
29803;DHT22;16702;50.898;4.662;2022-08-24T02:01:54;23.70;99.90
29803;DHT22;16702;50.898;4.662;2022-08-24T02:04:25;23.60;99.90
29803;DHT22;16702;50.898;4.662;2022-08-24T02:06:56;23.60;99.90
29803;DHT22;16702;50.898;4.662;2022-08-24T02:09:29;23.60;99.90
29803;DHT22;16702;50.898;4.662;2022-08-24T02:12:00;23.60;99.90
29803;DHT22;16702;50.898;4.662;2022-08-24T02:14:33;23.60;99.90
29803;DHT22;16702;50.898;4.662;2022-08-24T02:17:05;23.60;99.90
29803;DHT22;16702;50.898;4.662;2022-08-24T02:19:36;23.60;99.90
29803;DHT22;16702;50.898;4.662;2022-08-24T02:22:08;23.60;99.90
29803;DHT22;16702;50.898;4.662;2022-08-24T02:24:42;23.50;99.90
29803;DHT22;16702;50.898;4.662;2022-08-24T02:27:13;23.50;99.90
29803;DHT22;16702;50.898;4.662;2022-08-24T02:29:44;23.50;99.90
29803;DHT22;16702;50.898;4.662;2022-08-24T02:32:14;23.50;99.90
29803;DHT22;16702;50.898;4.662;2022-08-24T02:34:45;23.50;99.90
29803;DHT22;16702;50.898;4.662;2022-08-24T02:37:20;23.50;99.90
29803;DHT22;16702;50.898;4.662;2022-08-24T02:39:54;23.40;99.90
29803;DHT22;16702;50.898;4.662;2022-08-24T02:42:26;23.50;99.90
29803;DHT22;16702;50.898;4.662;2022-08-24T02:44:56;23.40;99.90
29803;DHT22;16702;50.898;4.662;2022-08-24T02:47:27;23.40;99.90
29803;DHT22;16702;50.898;4.662;2022-08-24T02:50:08;23.40;99.90
29803;DHT22;16702;50.898;4.662;2022-08-24T02:52:41;23.40;99.90
29803;DHT22;16702;50.898;4.662;2022-08-24T02:55:16;23.40;99.90
29803;DHT22;16702;50.898;4.662;2022-08-24T02:57:51;23.30;99.90
29803;DHT22;16702;50.898;4.662;2022-08-24T03:00:22;23.30;99.90
29803;DHT22;16702;50.898;4.662;2022-08-24T03:02:55;23.30;99.90
29803;DHT22;16702;50.898;4.662;2022-08-24T03:05:26;23.20;99.90
29803;DHT22;16702;50.898;4.662;2022-08-24T03:07:56;23.20;99.90
29803;DHT22;16702;50.898;4.662;2022-08-24T03:10:30;23.20;99.90
29803;DHT22;16702;50.898;4.662;2022-08-24T03:13:02;23.20;99.90
29803;DHT22;16702;50.898;4.662;2022-08-24T03:15:34;23.20;99.90
29803;DHT22;16702;50.898;4.662;2022-08-24T03:18:04;23.10;99.90
29803;DHT22;16702;50.898;4.662;2022-08-24T03:20:35;23.10;99.90
29803;DHT22;16702;50.898;4.662;2022-08-24T03:23:05;23.10;99.90
29803;DHT22;16702;50.898;4.662;2022-08-24T03:25:38;23.10;99.90
29803;DHT22;16702;50.898;4.662;2022-08-24T03:28:09;23.00;99.90
29803;DHT22;16702;50.898;4.662;2022-08-24T03:30:40;23.10;99.90
29803;DHT22;16702;50.898;4.662;2022-08-24T03:33:16;23.10;99.90
29803;DHT22;16702;50.898;4.662;2022-08-24T03:35:47;23.10;99.90
29803;DHT22;16702;50.898;4.662;2022-08-24T03:38:20;23.00;99.90
29803;DHT22;16702;50.898;4.662;2022-08-24T03:40:54;23.10;99.90
29803;DHT22;16702;50.898;4.662;2022-08-24T03:43:25;23.00;99.90
29803;DHT22;16702;50.898;4.662;2022-08-24T03:46:07;23.00;99.90
29803;DHT22;16702;50.898;4.662;2022-08-24T03:48:41;23.00;99.90
29803;DHT22;16702;50.898;4.662;2022-08-24T03:51:12;23.00;99.90
29803;DHT22;16702;50.898;4.662;2022-08-24T03:53:46;22.90;99.90
29803;DHT22;16702;50.898;4.662;2022-08-24T03:56:20;22.90;99.90
29803;DHT22;16702;50.898;4.662;2022-08-24T03:58:51;22.90;99.90
29803;DHT22;16702;50.898;4.662;2022-08-24T04:01:23;22.90;99.90
29803;DHT22;16702;50.898;4.662;2022-08-24T04:03:54;22.90;99.90
29803;DHT22;16702;50.898;4.662;2022-08-24T04:06:30;22.90;99.90
29803;DHT22;16702;50.898;4.662;2022-08-24T04:09:00;22.80;99.90
29803;DHT22;16702;50.898;4.662;2022-08-24T04:11:38;22.80;99.90
29803;DHT22;16702;50.898;4.662;2022-08-24T04:14:14;22.80;99.90
29803;DHT22;16702;50.898;4.662;2022-08-24T04:17:13;22.80;99.90
29803;DHT22;16702;50.898;4.662;2022-08-24T04:19:46;22.70;99.90
29803;DHT22;16702;50.898;4.662;2022-08-24T04:22:30;22.80;99.90
29803;DHT22;16702;50.898;4.662;2022-08-24T04:25:06;22.70;99.90
29803;DHT22;16702;50.898;4.662;2022-08-24T04:27:40;22.70;99.90
29803;DHT22;16702;50.898;4.662;2022-08-24T04:30:12;22.70;99.90
29803;DHT22;16702;50.898;4.662;2022-08-24T04:33:08;22.60;99.90
29803;DHT22;16702;50.898;4.662;2022-08-24T04:35:42;22.60;99.90
29803;DHT22;16702;50.898;4.662;2022-08-24T04:38:15;22.50;99.90
29803;DHT22;16702;50.898;4.662;2022-08-24T04:41:04;22.50;99.90
29803;DHT22;16702;50.898;4.662;2022-08-24T04:43:42;22.50;99.90
29803;DHT22;16702;50.898;4.662;2022-08-24T04:46:15;22.50;99.90
29803;DHT22;16702;50.898;4.662;2022-08-24T04:48:47;22.50;99.90
29803;DHT22;16702;50.898;4.662;2022-08-24T04:51:19;22.50;99.90
29803;DHT22;16702;50.898;4.662;2022-08-24T04:53:50;22.40;99.90
29803;DHT22;16702;50.898;4.662;2022-08-24T04:56:23;22.40;99.90
29803;DHT22;16702;50.898;4.662;2022-08-24T04:58:58;22.40;99.90
29803;DHT22;16702;50.898;4.662;2022-08-24T05:01:31;22.40;99.90
29803;DHT22;16702;50.898;4.662;2022-08-24T05:04:04;22.40;99.90
29803;DHT22;16702;50.898;4.662;2022-08-24T05:06:35;22.40;99.90
29803;DHT22;16702;50.898;4.662;2022-08-24T05:09:06;22.40;99.90
29803;DHT22;16702;50.898;4.662;2022-08-24T05:11:38;22.40;99.90
29803;DHT22;16702;50.898;4.662;2022-08-24T05:14:23;22.40;99.90
29803;DHT22;16702;50.898;4.662;2022-08-24T05:16:55;22.40;99.90
29803;DHT22;16702;50.898;4.662;2022-08-24T05:19:30;22.40;99.90
29803;DHT22;16702;50.898;4.662;2022-08-24T05:22:00;22.30;99.90
29803;DHT22;16702;50.898;4.662;2022-08-24T05:24:30;22.30;99.90
29803;DHT22;16702;50.898;4.662;2022-08-24T05:27:01;22.30;99.90
29803;DHT22;16702;50.898;4.662;2022-08-24T05:29:34;22.40;99.90
29803;DHT22;16702;50.898;4.662;2022-08-24T05:32:05;22.30;99.90
29803;DHT22;16702;50.898;4.662;2022-08-24T05:34:36;22.40;99.90
29803;DHT22;16702;50.898;4.662;2022-08-24T05:37:07;22.40;99.90
29803;DHT22;16702;50.898;4.662;2022-08-24T05:39:51;22.40;99.90
29803;DHT22;16702;50.898;4.662;2022-08-24T05:42:21;22.40;99.90
29803;DHT22;16702;50.898;4.662;2022-08-24T05:44:54;22.40;99.90
29803;DHT22;16702;50.898;4.662;2022-08-24T05:47:25;22.40;99.90
29803;DHT22;16702;50.898;4.662;2022-08-24T05:50:07;22.40;99.90
29803;DHT22;16702;50.898;4.662;2022-08-24T05:52:38;22.40;99.90
29803;DHT22;16702;50.898;4.662;2022-08-24T05:55:09;22.50;99.90
29803;DHT22;16702;50.898;4.662;2022-08-24T05:57:40;22.50;99.90
29803;DHT22;16702;50.898;4.662;2022-08-24T06:00:19;22.50;99.90
29803;DHT22;16702;50.898;4.662;2022-08-24T06:02:51;22.50;99.90
29803;DHT22;16702;50.898;4.662;2022-08-24T06:05:22;22.60;99.90
29803;DHT22;16702;50.898;4.662;2022-08-24T06:07:53;22.60;99.90
29803;DHT22;16702;50.898;4.662;2022-08-24T06:10:23;22.60;99.90
29803;DHT22;16702;50.898;4.662;2022-08-24T06:13:04;22.70;99.90
29803;DHT22;16702;50.898;4.662;2022-08-24T06:15:38;22.70;99.90
29803;DHT22;16702;50.898;4.662;2022-08-24T06:18:11;22.80;99.90
29803;DHT22;16702;50.898;4.662;2022-08-24T06:20:42;22.70;99.90
29803;DHT22;16702;50.898;4.662;2022-08-24T06:23:14;22.80;99.90
29803;DHT22;16702;50.898;4.662;2022-08-24T06:25:52;22.80;99.90
29803;DHT22;16702;50.898;4.662;2022-08-24T06:28:44;22.90;99.90
29803;DHT22;16702;50.898;4.662;2022-08-24T06:31:18;22.90;99.90
29803;DHT22;16702;50.898;4.662;2022-08-24T06:33:51;22.90;99.90
29803;DHT22;16702;50.898;4.662;2022-08-24T06:36:22;23.00;99.90
29803;DHT22;16702;50.898;4.662;2022-08-24T06:38:52;23.00;99.90
29803;DHT22;16702;50.898;4.662;2022-08-24T06:41:23;23.10;99.90
29803;DHT22;16702;50.898;4.662;2022-08-24T06:43:55;23.10;99.90
29803;DHT22;16702;50.898;4.662;2022-08-24T06:46:45;23.10;99.90
29803;DHT22;16702;50.898;4.662;2022-08-24T06:49:17;23.10;99.90
29803;DHT22;16702;50.898;4.662;2022-08-24T06:51:47;23.10;99.90
29803;DHT22;16702;50.898;4.662;2022-08-24T06:54:18;23.20;99.90
29803;DHT22;16702;50.898;4.662;2022-08-24T06:56:50;23.10;99.90
29803;DHT22;16702;50.898;4.662;2022-08-24T06:59:21;23.20;99.90
29803;DHT22;16702;50.898;4.662;2022-08-24T07:01:56;23.20;99.90
29803;DHT22;16702;50.898;4.662;2022-08-24T07:04:28;23.20;99.90
29803;DHT22;16702;50.898;4.662;2022-08-24T07:07:17;23.20;99.90
29803;DHT22;16702;50.898;4.662;2022-08-24T07:09:48;23.20;99.90
29803;DHT22;16702;50.898;4.662;2022-08-24T07:12:19;23.20;99.90
29803;DHT22;16702;50.898;4.662;2022-08-24T07:14:51;23.20;99.90
29803;DHT22;16702;50.898;4.662;2022-08-24T07:17:24;23.30;99.90
29803;DHT22;16702;50.898;4.662;2022-08-24T07:19:55;23.20;99.90
29803;DHT22;16702;50.898;4.662;2022-08-24T07:22:44;23.30;99.90
29803;DHT22;16702;50.898;4.662;2022-08-24T07:25:14;23.40;99.90
29803;DHT22;16702;50.898;4.662;2022-08-24T07:27:46;23.30;99.90
29803;DHT22;16702;50.898;4.662;2022-08-24T07:30:17;23.30;99.90
29803;DHT22;16702;50.898;4.662;2022-08-24T07:32:59;23.30;99.90
29803;DHT22;16702;50.898;4.662;2022-08-24T07:35:31;23.40;99.90
29803;DHT22;16702;50.898;4.662;2022-08-24T07:38:05;23.40;99.90
29803;DHT22;16702;50.898;4.662;2022-08-24T07:40:37;23.50;99.90
29803;DHT22;16702;50.898;4.662;2022-08-24T07:43:28;23.50;99.90
29803;DHT22;16702;50.898;4.662;2022-08-24T07:45:59;23.60;99.90
29803;DHT22;16702;50.898;4.662;2022-08-24T07:48:33;23.60;99.90
29803;DHT22;16702;50.898;4.662;2022-08-24T07:51:08;23.60;99.90
29803;DHT22;16702;50.898;4.662;2022-08-24T07:53:40;23.60;99.90
29803;DHT22;16702;50.898;4.662;2022-08-24T07:56:26;23.60;99.90
29803;DHT22;16702;50.898;4.662;2022-08-24T07:59:00;23.60;99.90
29803;DHT22;16702;50.898;4.662;2022-08-24T08:01:30;23.70;99.90
29803;DHT22;16702;50.898;4.662;2022-08-24T08:04:04;23.70;99.90
29803;DHT22;16702;50.898;4.662;2022-08-24T08:06:36;23.70;99.90
29803;DHT22;16702;50.898;4.662;2022-08-24T08:09:07;23.70;99.90
29803;DHT22;16702;50.898;4.662;2022-08-24T08:11:39;23.80;99.90
29803;DHT22;16702;50.898;4.662;2022-08-24T08:14:13;23.90;99.90
29803;DHT22;16702;50.898;4.662;2022-08-24T08:16:44;24.00;99.90
29803;DHT22;16702;50.898;4.662;2022-08-24T08:19:17;24.20;99.90
29803;DHT22;16702;50.898;4.662;2022-08-24T08:21:50;24.30;99.90
29803;DHT22;16702;50.898;4.662;2022-08-24T08:24:43;24.20;99.90
29803;DHT22;16702;50.898;4.662;2022-08-24T08:27:13;24.10;99.90
29803;DHT22;16702;50.898;4.662;2022-08-24T08:29:44;24.20;99.90
29803;DHT22;16702;50.898;4.662;2022-08-24T08:32:14;24.10;99.90
29803;DHT22;16702;50.898;4.662;2022-08-24T08:34:51;24.10;99.90
29803;DHT22;16702;50.898;4.662;2022-08-24T08:37:28;24.20;99.90
29803;DHT22;16702;50.898;4.662;2022-08-24T08:39:59;24.20;99.90
29803;DHT22;16702;50.898;4.662;2022-08-24T08:42:47;24.30;99.90
29803;DHT22;16702;50.898;4.662;2022-08-24T08:45:29;24.30;99.90
29803;DHT22;16702;50.898;4.662;2022-08-24T08:48:57;24.30;99.90
29803;DHT22;16702;50.898;4.662;2022-08-24T08:52:05;24.40;99.90
29803;DHT22;16702;50.898;4.662;2022-08-24T08:54:46;24.50;99.90
29803;DHT22;16702;50.898;4.662;2022-08-24T08:57:30;24.40;99.90
29803;DHT22;16702;50.898;4.662;2022-08-24T09:00:12;24.50;99.90
29803;DHT22;16702;50.898;4.662;2022-08-24T09:03:21;24.50;99.90
29803;DHT22;16702;50.898;4.662;2022-08-24T09:09:24;24.60;99.90
29803;DHT22;16702;50.898;4.662;2022-08-24T09:12:16;24.70;99.90
29803;DHT22;16702;50.898;4.662;2022-08-24T09:15:19;24.70;99.90
29803;DHT22;16702;50.898;4.662;2022-08-24T09:18:06;24.80;99.90
29803;DHT22;16702;50.898;4.662;2022-08-24T09:20:58;24.90;99.90
29803;DHT22;16702;50.898;4.662;2022-08-24T09:23:35;24.90;99.90
29803;DHT22;16702;50.898;4.662;2022-08-24T09:26:20;25.00;99.90
29803;DHT22;16702;50.898;4.662;2022-08-24T09:29:02;25.10;99.90
29803;DHT22;16702;50.898;4.662;2022-08-24T09:31:42;25.40;99.90
29803;DHT22;16702;50.898;4.662;2022-08-24T09:34:21;25.50;99.90
29803;DHT22;16702;50.898;4.662;2022-08-24T09:37:03;25.60;99.90
29803;DHT22;16702;50.898;4.662;2022-08-24T09:39:57;25.70;99.90
29803;DHT22;16702;50.898;4.662;2022-08-24T09:42:54;25.80;99.90
29803;DHT22;16702;50.898;4.662;2022-08-24T09:45:57;26.00;99.90
29803;DHT22;16702;50.898;4.662;2022-08-24T09:48:53;26.10;99.90
29803;DHT22;16702;50.898;4.662;2022-08-24T09:57:47;26.30;99.90
29803;DHT22;16702;50.898;4.662;2022-08-24T10:00:36;26.30;99.90
29803;DHT22;16702;50.898;4.662;2022-08-24T10:03:17;26.60;99.90
29803;DHT22;16702;50.898;4.662;2022-08-24T10:06:19;26.60;99.90
29803;DHT22;16702;50.898;4.662;2022-08-24T10:09:11;26.70;99.90
29803;DHT22;16702;50.898;4.662;2022-08-24T10:11:56;26.90;99.90
29803;DHT22;16702;50.898;4.662;2022-08-24T10:14:40;26.90;99.90
29803;DHT22;16702;50.898;4.662;2022-08-24T10:17:26;26.90;99.90
29803;DHT22;16702;50.898;4.662;2022-08-24T10:20:08;27.00;99.90
29803;DHT22;16702;50.898;4.662;2022-08-24T10:23:09;27.00;99.90
29803;DHT22;16702;50.898;4.662;2022-08-24T10:25:52;27.00;99.90
29803;DHT22;16702;50.898;4.662;2022-08-24T10:28:48;27.10;99.90
29803;DHT22;16702;50.898;4.662;2022-08-24T10:31:26;27.40;99.90
29803;DHT22;16702;50.898;4.662;2022-08-24T10:34:15;27.40;99.90
29803;DHT22;16702;50.898;4.662;2022-08-24T10:36:53;27.50;99.90
29803;DHT22;16702;50.898;4.662;2022-08-24T10:40:03;27.60;99.90
29803;DHT22;16702;50.898;4.662;2022-08-24T10:43:08;27.70;99.90
29803;DHT22;16702;50.898;4.662;2022-08-24T10:46:24;27.80;99.90
29803;DHT22;16702;50.898;4.662;2022-08-24T10:49:26;28.00;99.90
29803;DHT22;16702;50.898;4.662;2022-08-24T10:55:30;28.10;99.90
29803;DHT22;16702;50.898;4.662;2022-08-24T10:58:18;28.10;99.90
29803;DHT22;16702;50.898;4.662;2022-08-24T11:00:52;28.10;99.90
29803;DHT22;16702;50.898;4.662;2022-08-24T11:03:24;28.20;99.90
29803;DHT22;16702;50.898;4.662;2022-08-24T11:05:57;28.30;99.90
29803;DHT22;16702;50.898;4.662;2022-08-24T11:08:30;28.40;99.90
29803;DHT22;16702;50.898;4.662;2022-08-24T11:11:07;28.50;99.90
29803;DHT22;16702;50.898;4.662;2022-08-24T11:13:51;28.50;99.90
29803;DHT22;16702;50.898;4.662;2022-08-24T11:16:32;28.50;99.90
29803;DHT22;16702;50.898;4.662;2022-08-24T11:19:07;28.60;99.90
29803;DHT22;16702;50.898;4.662;2022-08-24T11:21:47;28.70;99.90
29803;DHT22;16702;50.898;4.662;2022-08-24T11:24:29;28.80;99.90
29803;DHT22;16702;50.898;4.662;2022-08-24T11:27:03;28.90;99.90
29803;DHT22;16702;50.898;4.662;2022-08-24T11:30:00;29.10;99.90
29803;DHT22;16702;50.898;4.662;2022-08-24T11:32:37;29.10;99.20
29803;DHT22;16702;50.898;4.662;2022-08-24T11:35:21;29.20;98.80
29803;DHT22;16702;50.898;4.662;2022-08-24T11:38:06;29.40;98.10
29803;DHT22;16702;50.898;4.662;2022-08-24T11:40:40;29.40;98.30
29803;DHT22;16702;50.898;4.662;2022-08-24T11:43:23;29.50;97.40
29803;DHT22;16702;50.898;4.662;2022-08-24T11:46:05;29.50;97.20
29803;DHT22;16702;50.898;4.662;2022-08-24T11:48:45;29.50;96.80
29803;DHT22;16702;50.898;4.662;2022-08-24T11:51:26;29.60;96.90
29803;DHT22;16702;50.898;4.662;2022-08-24T11:54:04;29.60;96.40
29803;DHT22;16702;50.898;4.662;2022-08-24T11:56:42;29.70;96.30
29803;DHT22;16702;50.898;4.662;2022-08-24T11:59:22;29.80;96.30
29803;DHT22;16702;50.898;4.662;2022-08-24T12:01:57;30.00;95.60
29803;DHT22;16702;50.898;4.662;2022-08-24T12:04:38;30.00;95.30
29803;DHT22;16702;50.898;4.662;2022-08-24T12:07:18;30.10;94.20
29803;DHT22;16702;50.898;4.662;2022-08-24T12:10:09;30.20;93.90
29803;DHT22;16702;50.898;4.662;2022-08-24T12:12:45;30.30;93.60
29803;DHT22;16702;50.898;4.662;2022-08-24T12:15:26;30.30;94.00
29803;DHT22;16702;50.898;4.662;2022-08-24T12:18:14;30.20;93.50
29803;DHT22;16702;50.898;4.662;2022-08-24T12:20:48;30.30;94.00
29803;DHT22;16702;50.898;4.662;2022-08-24T12:23:36;30.40;94.30
29803;DHT22;16702;50.898;4.662;2022-08-24T12:26:14;30.50;94.00
29803;DHT22;16702;50.898;4.662;2022-08-24T12:28:49;30.70;93.50
29803;DHT22;16702;50.898;4.662;2022-08-24T12:31:25;30.50;93.30
29803;DHT22;16702;50.898;4.662;2022-08-24T12:34:02;30.60;93.70
29803;DHT22;16702;50.898;4.662;2022-08-24T12:36:40;30.80;93.10
29803;DHT22;16702;50.898;4.662;2022-08-24T12:39:18;30.80;92.50
29803;DHT22;16702;50.898;4.662;2022-08-24T12:42:00;30.90;93.30
29803;DHT22;16702;50.898;4.662;2022-08-24T12:44:39;31.00;92.30
29803;DHT22;16702;50.898;4.662;2022-08-24T12:47:16;31.10;92.50
29803;DHT22;16702;50.898;4.662;2022-08-24T12:49:52;31.10;93.00
29803;DHT22;16702;50.898;4.662;2022-08-24T12:56:09;31.10;92.20
29803;DHT22;16702;50.898;4.662;2022-08-24T12:58:53;31.20;92.00
29803;DHT22;16702;50.898;4.662;2022-08-24T13:01:26;31.30;92.00
29803;DHT22;16702;50.898;4.662;2022-08-24T13:04:29;31.40;91.70
29803;DHT22;16702;50.898;4.662;2022-08-24T13:07:04;31.60;91.70
29803;DHT22;16702;50.898;4.662;2022-08-24T13:09:38;31.60;91.30
29803;DHT22;16702;50.898;4.662;2022-08-24T13:15:51;31.80;91.00
29803;DHT22;16702;50.898;4.662;2022-08-24T13:21:46;32.00;90.90
29803;DHT22;16702;50.898;4.662;2022-08-24T13:24:50;31.70;91.00
29803;DHT22;16702;50.898;4.662;2022-08-24T13:31:04;31.30;91.70
29803;DHT22;16702;50.898;4.662;2022-08-24T13:33:43;31.20;91.50
29803;DHT22;16702;50.898;4.662;2022-08-24T13:39:35;31.60;91.80
29803;DHT22;16702;50.898;4.662;2022-08-24T13:42:16;31.80;91.50
29803;DHT22;16702;50.898;4.662;2022-08-24T13:47:59;32.10;91.20
29803;DHT22;16702;50.898;4.662;2022-08-24T13:50:37;31.90;91.00
29803;DHT22;16702;50.898;4.662;2022-08-24T13:53:36;32.00;90.90
29803;DHT22;16702;50.898;4.662;2022-08-24T13:56:43;32.20;91.00
29803;DHT22;16702;50.898;4.662;2022-08-24T13:59:20;32.30;91.20
29803;DHT22;16702;50.898;4.662;2022-08-24T14:02:09;32.40;90.80
29803;DHT22;16702;50.898;4.662;2022-08-24T14:04:53;32.50;90.30
29803;DHT22;16702;50.898;4.662;2022-08-24T14:07:27;32.70;91.30
29803;DHT22;16702;50.898;4.662;2022-08-24T14:10:07;32.90;89.80
29803;DHT22;16702;50.898;4.662;2022-08-24T14:12:50;32.90;89.90
29803;DHT22;16702;50.898;4.662;2022-08-24T14:15:27;33.00;89.50
29803;DHT22;16702;50.898;4.662;2022-08-24T14:18:10;32.90;89.30
29803;DHT22;16702;50.898;4.662;2022-08-24T14:20:58;33.00;88.30
29803;DHT22;16702;50.898;4.662;2022-08-24T14:23:50;33.00;89.30
29803;DHT22;16702;50.898;4.662;2022-08-24T14:29:30;33.20;88.40
29803;DHT22;16702;50.898;4.662;2022-08-24T14:32:31;33.30;88.10
29803;DHT22;16702;50.898;4.662;2022-08-24T14:35:27;33.20;88.40
29803;DHT22;16702;50.898;4.662;2022-08-24T14:38:30;33.10;88.00
29803;DHT22;16702;50.898;4.662;2022-08-24T14:41:13;33.10;87.90
29803;DHT22;16702;50.898;4.662;2022-08-24T14:44:07;33.20;88.10
29803;DHT22;16702;50.898;4.662;2022-08-24T14:46:46;33.30;87.40
29803;DHT22;16702;50.898;4.662;2022-08-24T14:49:25;33.40;88.20
29803;DHT22;16702;50.898;4.662;2022-08-24T14:52:05;33.40;86.60
29803;DHT22;16702;50.898;4.662;2022-08-24T14:54:49;33.40;86.00
29803;DHT22;16702;50.898;4.662;2022-08-24T14:57:37;33.70;87.00
29803;DHT22;16702;50.898;4.662;2022-08-24T15:00:14;33.60;86.20
29803;DHT22;16702;50.898;4.662;2022-08-24T15:03:07;33.50;85.50
29803;DHT22;16702;50.898;4.662;2022-08-24T15:05:45;33.30;86.10
29803;DHT22;16702;50.898;4.662;2022-08-24T15:08:39;33.30;86.70
29803;DHT22;16702;50.898;4.662;2022-08-24T15:11:18;33.30;86.20
29803;DHT22;16702;50.898;4.662;2022-08-24T15:13:54;33.10;85.80
29803;DHT22;16702;50.898;4.662;2022-08-24T15:16:32;33.00;85.90
29803;DHT22;16702;50.898;4.662;2022-08-24T15:19:08;32.90;86.90
29803;DHT22;16702;50.898;4.662;2022-08-24T15:21:48;32.90;88.00
29803;DHT22;16702;50.898;4.662;2022-08-24T15:24:22;32.80;87.20
29803;DHT22;16702;50.898;4.662;2022-08-24T15:27:08;32.80;88.30
29803;DHT22;16702;50.898;4.662;2022-08-24T15:29:49;32.70;88.00
29803;DHT22;16702;50.898;4.662;2022-08-24T15:32:24;32.70;89.20
29803;DHT22;16702;50.898;4.662;2022-08-24T15:34:56;32.50;88.80
29803;DHT22;16702;50.898;4.662;2022-08-24T15:37:31;32.40;88.30
29803;DHT22;16702;50.898;4.662;2022-08-24T15:40:04;32.40;89.10
29803;DHT22;16702;50.898;4.662;2022-08-24T15:42:49;32.30;89.30
29803;DHT22;16702;50.898;4.662;2022-08-24T15:45:21;32.30;89.80
29803;DHT22;16702;50.898;4.662;2022-08-24T15:47:52;32.30;90.30
29803;DHT22;16702;50.898;4.662;2022-08-24T15:50:26;32.20;90.50
29803;DHT22;16702;50.898;4.662;2022-08-24T15:52:59;32.20;90.20
29803;DHT22;16702;50.898;4.662;2022-08-24T15:55:34;32.20;90.10
29803;DHT22;16702;50.898;4.662;2022-08-24T15:58:29;32.10;90.30
29803;DHT22;16702;50.898;4.662;2022-08-24T16:01:19;32.10;90.60
29803;DHT22;16702;50.898;4.662;2022-08-24T16:04:03;32.10;91.10
29803;DHT22;16702;50.898;4.662;2022-08-24T16:06:38;32.00;90.80
29803;DHT22;16702;50.898;4.662;2022-08-24T16:09:13;32.00;91.00
29803;DHT22;16702;50.898;4.662;2022-08-24T16:11:48;31.90;91.10
29803;DHT22;16702;50.898;4.662;2022-08-24T16:14:28;31.90;91.10
29803;DHT22;16702;50.898;4.662;2022-08-24T16:17:16;31.90;91.30
29803;DHT22;16702;50.898;4.662;2022-08-24T16:19:50;31.90;91.20
29803;DHT22;16702;50.898;4.662;2022-08-24T16:22:33;31.90;91.00
29803;DHT22;16702;50.898;4.662;2022-08-24T16:25:17;31.90;91.20
29803;DHT22;16702;50.898;4.662;2022-08-24T16:28:03;31.90;91.60
29803;DHT22;16702;50.898;4.662;2022-08-24T16:30:43;31.90;91.60
29803;DHT22;16702;50.898;4.662;2022-08-24T16:36:04;32.00;90.80
29803;DHT22;16702;50.898;4.662;2022-08-24T16:38:37;32.20;91.30
29803;DHT22;16702;50.898;4.662;2022-08-24T16:41:15;32.50;91.10
29803;DHT22;16702;50.898;4.662;2022-08-24T16:43:46;32.70;90.70
29803;DHT22;16702;50.898;4.662;2022-08-24T16:46:22;32.80;90.20
29803;DHT22;16702;50.898;4.662;2022-08-24T16:48:52;32.80;89.90
29803;DHT22;16702;50.898;4.662;2022-08-24T16:51:23;33.00;90.20
29803;DHT22;16702;50.898;4.662;2022-08-24T16:53:54;33.10;89.10
29803;DHT22;16702;50.898;4.662;2022-08-24T16:56:24;33.20;90.30
29803;DHT22;16702;50.898;4.662;2022-08-24T16:58:55;33.30;88.80
29803;DHT22;16702;50.898;4.662;2022-08-24T17:01:29;33.40;89.00
29803;DHT22;16702;50.898;4.662;2022-08-24T17:03:59;33.30;88.20
29803;DHT22;16702;50.898;4.662;2022-08-24T17:06:30;33.60;89.40
29803;DHT22;16702;50.898;4.662;2022-08-24T17:09:00;33.60;87.60
29803;DHT22;16702;50.898;4.662;2022-08-24T17:11:30;33.60;88.30
29803;DHT22;16702;50.898;4.662;2022-08-24T17:14:03;33.60;87.40
29803;DHT22;16702;50.898;4.662;2022-08-24T17:16:38;33.40;86.70